This is the latest recevied weather packets stored in our database for station/object KJ4RDP-13. If no packets are shown the sender has not sent any weather packets the latest 10 day(s).
| Time | Temp. | Humidity | Pressure | Rain* | Wind** | Luminosity | Snow |
|---|---|---|---|---|---|---|---|
| 1777769740 | 10° C | 56% | 1013.5 hPa | 0 mm | - | 0 W/m² | - |
| 1777769438 | 10.56° C | 54% | 1013.5 hPa | 0 mm | - | 0 W/m² | - |
| 1777769134 | 10.56° C | 54% | 1013.5 hPa | 0 mm | - | 0 W/m² | - |
| 1777768832 | 10.56° C | 53% | 1013.5 hPa | 0 mm | - | 0 W/m² | - |
| 1777768529 | 10.56° C | 54% | 1013.5 hPa | 0 mm | - | 0 W/m² | - |
| 1777768226 | 10.56° C | 54% | 1013.5 hPa | 0 mm | - | 0 W/m² | - |
| 1777767923 | 10.56° C | 53% | 1013.1 hPa | 0 mm | - | 0 W/m² | - |
| 1777767620 | 10.56° C | 55% | 1013.1 hPa | 0 mm | - | 0 W/m² | - |
| 1777767316 | 11.11° C | 52% | 1013.1 hPa | 0 mm | - | 3 W/m² | - |
| 1777767014 | 11.11° C | 52% | 1012.8 hPa | 0 mm | - | 5 W/m² | - |
| 1777766710 | 11.11° C | 50% | 1013.1 hPa | 0 mm | - | 9 W/m² | - |
| 1777766407 | 11.11° C | 51% | 1012.8 hPa | 0 mm | - | 11 W/m² | - |
| 1777766104 | 11.67° C | 50% | 1012.8 hPa | 0 mm | - | 15 W/m² | - |
| 1777765802 | 11.67° C | 49% | 1012.3 hPa | 0 mm | - | 19 W/m² | - |
| 1777765498 | 12.22° C | 48% | 1012.8 hPa | 0 mm | - | 22 W/m² | - |
| 1777765195 | 12.22° C | 48% | 1012.8 hPa | 0 mm | - | 26 W/m² | - |
| 1777764896 | 12.22° C | 48% | 1012.8 hPa | 0 mm | - | 30 W/m² | - |
| 1777764593 | 12.78° C | 47% | 1012.3 hPa | 0 mm | - | 39 W/m² | - |
| 1777764289 | 13.33° C | 44% | 1012.8 hPa | 0 mm | - | 50 W/m² | - |
| 1777763986 | 13.89° C | 45% | 1012.3 hPa | 0 mm | - | 87 W/m² | - |
| 1777763684 | 13.89° C | 45% | 1012.3 hPa | 0 mm | - | 107 W/m² | - |
| 1777763382 | 14.44° C | 44% | 1012 hPa | 0 mm | - | 124 W/m² | - |
| 1777763079 | 15° C | 43% | 1012 hPa | 0 mm | - | 121 W/m² | - |
| 1777762777 | 14.44° C | 44% | 1012 hPa | 0 mm | - | 140 W/m² | - |
| 1777762473 | 14.44° C | 42% | 1012.3 hPa | 0 mm | - | 164 W/m² | - |
* Rain latest hour (hover to see other rain measurements)
** Current wind speed in m/s (hover to see current wind gust speed)